createdAt,value
2019-04-04T00:00:03.919Z,13.20
2019-04-04T00:03:07.942Z,13.10
2019-04-04T00:06:11.618Z,13.00
2019-04-04T00:09:15.581Z,13.00
2019-04-04T00:12:19.299Z,12.90
2019-04-04T00:15:22.987Z,12.90
2019-04-04T00:18:27.372Z,12.90
2019-04-04T00:21:31.988Z,12.90
2019-04-04T00:24:39.346Z,12.80
2019-04-04T00:27:43.966Z,12.70
2019-04-04T00:30:48.411Z,12.70
2019-04-04T00:33:53.849Z,12.70
2019-04-04T00:36:58.278Z,12.70
2019-04-04T00:40:01.999Z,12.60
2019-04-04T00:43:05.790Z,12.60
2019-04-04T00:46:09.487Z,12.50
2019-04-04T00:49:13.213Z,12.40
2019-04-04T00:52:16.918Z,12.40
2019-04-04T00:55:20.645Z,12.40
2019-04-04T00:58:24.787Z,12.30
2019-04-04T01:01:28.474Z,12.30
2019-04-04T01:04:32.410Z,12.20
2019-04-04T01:07:36.459Z,12.20
2019-04-04T01:10:40.929Z,12.10
2019-04-04T01:13:44.687Z,12.00
2019-04-04T01:16:48.374Z,11.90
2019-04-04T01:19:52.064Z,11.90
2019-04-04T01:22:56.152Z,11.80
2019-04-04T01:26:01.320Z,11.80
2019-04-04T01:29:06.120Z,11.70
2019-04-04T01:32:09.881Z,11.80
2019-04-04T01:35:13.749Z,11.70
2019-04-04T01:38:17.610Z,11.70
2019-04-04T01:41:21.304Z,11.60
2019-04-04T01:44:25.032Z,11.60
2019-04-04T01:47:28.815Z,11.60
2019-04-04T01:50:32.546Z,11.50
2019-04-04T01:53:36.461Z,11.40
2019-04-04T01:56:40.189Z,11.40
2019-04-04T01:59:44.406Z,11.30
2019-04-04T02:02:49.828Z,11.40
2019-04-04T02:05:53.562Z,11.30
2019-04-04T02:08:57.598Z,11.20
2019-04-04T02:12:01.559Z,11.20
2019-04-04T02:15:06.246Z,11.10
2019-04-04T02:18:09.962Z,11.10
2019-04-04T02:21:13.675Z,11.00
2019-04-04T02:24:17.353Z,11.00
2019-04-04T02:27:21.077Z,11.00
2019-04-04T02:30:26.520Z,10.90
2019-04-04T02:33:32.416Z,10.90
2019-04-04T02:36:35.771Z,10.80
2019-04-04T02:39:39.499Z,10.80
2019-04-04T02:42:43.240Z,10.80
2019-04-04T02:45:46.985Z,10.80
2019-04-04T02:48:50.722Z,10.70
2019-04-04T02:51:54.808Z,10.70
2019-04-04T02:54:58.786Z,10.60
2019-04-04T02:58:02.585Z,10.60
2019-04-04T03:01:06.293Z,10.60
2019-04-04T03:04:13.519Z,10.50
2019-04-04T03:07:15.889Z,10.60
2019-04-04T03:10:19.622Z,10.60
2019-04-04T03:13:23.411Z,10.60
2019-04-04T03:16:27.512Z,10.60
2019-04-04T03:19:31.238Z,10.50
2019-04-04T03:22:35.126Z,10.50
2019-04-04T03:25:38.842Z,10.50
2019-04-04T03:28:42.576Z,10.40
2019-04-04T03:31:46.549Z,10.40
2019-04-04T03:34:51.407Z,10.40
2019-04-04T03:37:55.543Z,10.30
2019-04-04T03:40:59.572Z,10.30
2019-04-04T03:44:03.358Z,10.20
2019-04-04T03:47:09.892Z,10.30
2019-04-04T03:50:12.441Z,10.30
2019-04-04T03:53:17.704Z,10.20
2019-04-04T03:56:21.466Z,10.20
2019-04-04T03:59:25.385Z,10.20
2019-04-04T04:02:29.060Z,10.20
2019-04-04T04:05:35.559Z,10.20
2019-04-04T04:08:38.763Z,10.10
2019-04-04T04:11:42.499Z,10.20
2019-04-04T04:14:46.261Z,10.10
2019-04-04T04:17:49.982Z,10.10
2019-04-04T04:20:53.941Z,10.10
2019-04-04T04:23:58.100Z,10.10
2019-04-04T04:27:02.090Z,10.00
2019-04-04T04:30:07.592Z,10.00
2019-04-04T04:33:11.426Z,9.80
2019-04-04T04:36:16.260Z,10.00
2019-04-04T04:39:20.196Z,10.00
2019-04-04T04:42:26.341Z,9.90
2019-04-04T04:45:29.273Z,9.90
2019-04-04T04:48:32.969Z,9.90
2019-04-04T04:51:36.650Z,9.90
2019-04-04T04:54:40.379Z,9.90
2019-04-04T04:57:44.124Z,9.90
2019-04-04T05:00:48.903Z,9.90
2019-04-04T05:03:54.178Z,10.00
2019-04-04T05:06:58.121Z,9.90
2019-04-04T05:10:01.825Z,9.90
2019-04-04T05:13:05.544Z,9.90
2019-04-04T05:16:09.350Z,10.00
2019-04-04T05:19:13.080Z,10.00
2019-04-04T05:22:16.882Z,10.00
2019-04-04T05:25:20.664Z,10.00
2019-04-04T05:28:24.452Z,10.00
2019-04-04T05:31:28.183Z,10.00
2019-04-04T05:34:32.106Z,10.10
2019-04-04T05:37:37.984Z,10.10
2019-04-04T05:40:41.251Z,10.10
2019-04-04T05:43:44.989Z,10.20
2019-04-04T05:46:51.048Z,10.20
2019-04-04T05:49:54.246Z,10.20
2019-04-04T05:52:58.231Z,10.20
2019-04-04T05:56:01.945Z,10.30
2019-04-04T05:59:06.137Z,10.30
2019-04-04T06:02:11.556Z,10.50
2019-04-04T06:05:15.331Z,10.50
2019-04-04T06:08:19.271Z,10.60
2019-04-04T06:11:23.248Z,10.60
2019-04-04T06:14:27.977Z,10.70
2019-04-04T06:17:32.462Z,10.90
2019-04-04T06:20:36.167Z,11.00
2019-04-04T06:23:39.902Z,11.10
2019-04-04T06:26:43.737Z,11.30
2019-04-04T06:29:47.970Z,11.40
2019-04-04T06:32:52.126Z,11.60
2019-04-04T06:35:55.794Z,11.70
2019-04-04T06:38:59.489Z,11.80
2019-04-04T06:42:03.945Z,11.80
2019-04-04T06:45:08.546Z,12.00
2019-04-04T06:48:12.235Z,12.20
2019-04-04T06:51:15.934Z,12.30
2019-04-04T06:54:19.852Z,12.40
2019-04-04T06:57:23.659Z,12.60
2019-04-04T07:00:28.990Z,12.70
2019-04-04T07:03:32.722Z,12.80
2019-04-04T07:06:36.426Z,13.30
2019-04-04T07:09:40.948Z,14.30
2019-04-04T07:12:44.678Z,14.50
2019-04-04T07:16:05.727Z,14.40
2019-04-04T07:18:55.309Z,14.20
2019-04-04T07:21:59.206Z,14.10
2019-04-04T07:25:05.568Z,14.00
2019-04-04T07:28:08.414Z,14.00
2019-04-04T07:31:12.186Z,14.00
2019-04-04T07:34:15.865Z,14.00
2019-04-04T07:37:21.919Z,14.10
2019-04-04T07:40:25.434Z,14.10
2019-04-04T07:43:29.168Z,14.20
2019-04-04T07:46:32.968Z,14.20
2019-04-04T07:49:39.998Z,14.30
2019-04-04T07:52:43.746Z,14.40
2019-04-04T07:55:47.422Z,14.40
2019-04-04T07:58:51.131Z,14.50
2019-04-04T08:01:54.856Z,14.60
2019-04-04T08:04:58.546Z,14.50
2019-04-04T08:08:02.219Z,14.50
2019-04-04T08:11:05.906Z,14.70
2019-04-04T08:14:09.767Z,14.90
2019-04-04T08:17:13.480Z,15.10
2019-04-04T08:20:17.180Z,15.20
2019-04-04T08:23:20.906Z,15.60
2019-04-04T08:26:24.579Z,15.80
2019-04-04T08:29:28.505Z,15.90
2019-04-04T08:32:32.238Z,15.90
2019-04-04T08:35:35.972Z,15.90
2019-04-04T08:38:40.034Z,15.80
2019-04-04T08:41:43.758Z,15.70
2019-04-04T08:44:47.874Z,15.80
2019-04-04T08:47:51.578Z,15.70
2019-04-04T08:50:55.279Z,15.70
2019-04-04T08:53:58.994Z,15.70
2019-04-04T08:57:02.746Z,15.90
2019-04-04T09:00:07.446Z,16.00
2019-04-04T09:03:11.126Z,16.20
2019-04-04T09:06:14.862Z,16.20
2019-04-04T09:09:18.582Z,16.40
2019-04-04T09:12:22.326Z,16.50
2019-04-04T09:15:26.391Z,16.60
2019-04-04T09:18:30.666Z,16.50
2019-04-04T09:21:34.397Z,16.70
2019-04-04T09:24:38.088Z,16.70
2019-04-04T09:27:41.918Z,16.80
2019-04-04T09:30:45.662Z,16.90
2019-04-04T09:33:49.450Z,17.00
2019-04-04T09:36:53.181Z,17.10
2019-04-04T09:39:57.174Z,17.30
2019-04-04T09:43:00.902Z,17.30
2019-04-04T09:46:04.725Z,17.40
2019-04-04T09:49:08.505Z,17.60
2019-04-04T09:52:12.317Z,17.60
2019-04-04T09:55:16.332Z,17.60
2019-04-04T09:58:20.202Z,17.60
2019-04-04T10:01:23.898Z,17.70
2019-04-04T10:04:27.660Z,17.80
2019-04-04T10:07:31.448Z,17.70
2019-04-04T10:10:35.651Z,17.80
2019-04-04T10:13:39.678Z,17.80
2019-04-04T10:16:43.657Z,18.00
2019-04-04T10:19:47.723Z,18.00
2019-04-04T10:22:51.514Z,18.00
2019-04-04T10:25:55.257Z,18.00
2019-04-04T10:28:59.006Z,18.30
2019-04-04T10:32:02.762Z,18.50
2019-04-04T10:35:06.754Z,18.70
2019-04-04T10:38:10.447Z,18.90
2019-04-04T10:41:14.161Z,18.90
2019-04-04T10:44:17.841Z,19.00
2019-04-04T10:47:21.577Z,19.10
2019-04-04T10:50:25.330Z,19.10
2019-04-04T10:53:29.031Z,19.10
2019-04-04T10:56:32.966Z,19.30
2019-04-04T10:59:36.660Z,19.60
2019-04-04T11:02:40.379Z,19.80
2019-04-04T11:05:44.158Z,19.90
2019-04-04T11:08:48.282Z,20.00
2019-04-04T11:11:52.166Z,20.30
2019-04-04T11:14:55.822Z,20.30
2019-04-04T11:17:59.533Z,20.30
2019-04-04T11:21:03.234Z,20.20
2019-04-04T11:24:06.959Z,20.20
2019-04-04T11:27:10.717Z,20.30
2019-04-04T11:30:15.024Z,20.40
2019-04-04T11:33:18.814Z,20.50
2019-04-04T11:36:22.494Z,20.50
2019-04-04T11:39:26.215Z,20.30
2019-04-04T11:42:29.881Z,20.40
2019-04-04T11:45:33.627Z,20.40
2019-04-04T11:48:37.362Z,20.50
2019-04-04T11:51:41.035Z,20.60
2019-04-04T11:55:03.473Z,20.70
2019-04-04T11:58:07.226Z,20.70
2019-04-04T12:01:12.418Z,20.80
2019-04-04T12:04:16.133Z,21.00
2019-04-04T12:07:19.799Z,20.70
2019-04-04T12:10:23.778Z,20.70
2019-04-04T12:13:27.693Z,20.70
2019-04-04T12:16:32.868Z,20.70
2019-04-04T12:19:36.695Z,20.70
2019-04-04T12:22:40.427Z,20.60
2019-04-04T12:25:44.229Z,20.60
2019-04-04T12:28:47.986Z,20.80
2019-04-04T12:31:51.683Z,21.00
2019-04-04T12:34:55.615Z,21.20
2019-04-04T12:37:59.349Z,21.40
2019-04-04T12:41:03.150Z,21.70
2019-04-04T12:44:07.519Z,21.90
2019-04-04T12:47:11.311Z,22.00
2019-04-04T12:50:15.562Z,22.20
2019-04-04T12:53:19.245Z,22.40
2019-04-04T12:56:22.982Z,22.40
2019-04-04T12:59:26.678Z,22.40
2019-04-04T13:02:30.363Z,22.40
2019-04-04T13:05:34.095Z,22.30
2019-04-04T13:08:37.767Z,22.30
2019-04-04T13:11:41.555Z,22.30
2019-04-04T13:14:45.225Z,22.30
2019-04-04T13:17:48.967Z,22.20
2019-04-04T13:20:52.662Z,22.20
2019-04-04T13:23:56.345Z,22.30
2019-04-04T13:27:00.259Z,22.30
2019-04-04T13:30:05.073Z,22.20
2019-04-04T13:33:08.889Z,22.20
2019-04-04T13:36:12.598Z,22.20
2019-04-04T13:39:16.310Z,22.20
2019-04-04T13:42:20.042Z,22.00
2019-04-04T13:45:25.251Z,22.10
2019-04-04T13:48:29.218Z,22.10
2019-04-04T13:51:32.921Z,22.10
2019-04-04T13:54:36.652Z,22.20
2019-04-04T13:57:40.410Z,22.30
2019-04-04T14:00:45.116Z,22.30
2019-04-04T14:03:48.901Z,22.30
2019-04-04T14:06:52.634Z,22.30
2019-04-04T14:09:56.300Z,22.30
2019-04-04T14:13:00.026Z,22.30
2019-04-04T14:16:03.819Z,22.30
2019-04-04T14:19:07.654Z,22.40
2019-04-04T14:22:11.343Z,22.30
2019-04-04T14:25:15.299Z,22.30
2019-04-04T14:28:19.140Z,22.30
2019-04-04T14:31:22.962Z,22.40
2019-04-04T14:34:27.694Z,22.40
2019-04-04T14:37:31.404Z,22.40
2019-04-04T14:40:35.131Z,22.30
2019-04-04T14:43:38.850Z,22.40
2019-04-04T14:46:42.507Z,22.40
2019-04-04T14:49:46.518Z,22.50
2019-04-04T14:52:51.690Z,22.50
2019-04-04T14:55:55.613Z,22.20
2019-04-04T14:58:59.407Z,21.90
2019-04-04T15:02:03.425Z,21.60
2019-04-04T15:05:07.371Z,21.40
2019-04-04T15:08:11.230Z,21.40
2019-04-04T15:11:23.979Z,21.40
2019-04-04T15:14:20.523Z,21.50
2019-04-04T15:17:24.520Z,21.60
2019-04-04T15:20:28.249Z,21.70
2019-04-04T15:23:31.955Z,21.70
2019-04-04T15:26:35.695Z,21.80
2019-04-04T15:29:39.437Z,21.90
2019-04-04T15:32:43.182Z,22.00
2019-04-04T15:35:47.103Z,22.10
2019-04-04T15:38:51.110Z,22.10
2019-04-04T15:41:55.001Z,22.10
2019-04-04T15:44:58.647Z,22.00
2019-04-04T15:48:02.348Z,21.90
2019-04-04T15:51:06.065Z,21.70
2019-04-04T15:54:09.830Z,21.40
2019-04-04T15:57:13.671Z,21.20
2019-04-04T16:00:17.524Z,21.00
2019-04-04T16:03:21.388Z,20.90
2019-04-04T16:06:25.127Z,20.90
2019-04-04T16:09:28.822Z,21.00
2019-04-04T16:12:33.429Z,20.90
2019-04-04T16:15:37.303Z,21.00
2019-04-04T16:18:41.143Z,21.00
2019-04-04T16:21:47.666Z,21.00
2019-04-04T16:24:51.378Z,21.00
2019-04-04T16:27:55.358Z,20.90
2019-04-04T16:30:59.050Z,20.90
2019-04-04T16:34:02.816Z,20.80
2019-04-04T16:37:06.487Z,20.80
2019-04-04T16:40:11.064Z,20.70
2019-04-04T16:43:14.747Z,20.60
2019-04-04T16:46:18.528Z,20.50
2019-04-04T16:49:22.221Z,20.40
2019-04-04T16:52:25.915Z,20.20
2019-04-04T16:55:29.865Z,20.10
2019-04-04T16:58:33.584Z,20.00
2019-04-04T17:01:37.334Z,19.90
2019-04-04T17:04:41.030Z,19.80
2019-04-04T17:07:44.766Z,19.60
2019-04-04T17:10:48.502Z,19.50
2019-04-04T17:13:52.417Z,19.40
2019-04-04T17:16:56.141Z,19.30
2019-04-04T17:20:00.611Z,19.10
2019-04-04T17:23:04.397Z,19.00
2019-04-04T17:26:08.191Z,18.80
2019-04-04T17:29:11.940Z,18.70
2019-04-04T17:32:15.635Z,18.50
2019-04-04T17:35:19.406Z,18.40
2019-04-04T17:38:23.125Z,18.30
2019-04-04T17:41:27.575Z,18.10
2019-04-04T17:44:31.784Z,18.00
2019-04-04T17:47:35.983Z,17.90
2019-04-04T17:50:40.075Z,17.80
2019-04-04T17:53:44.664Z,17.70
2019-04-04T17:56:48.401Z,17.60
2019-04-04T17:59:52.083Z,17.50
2019-04-04T18:02:55.787Z,17.40
2019-04-04T18:05:59.553Z,17.30
2019-04-04T18:09:03.860Z,17.30
2019-04-04T18:12:07.654Z,17.20
2019-04-04T18:15:11.902Z,17.20
2019-04-04T18:18:15.674Z,17.10
2019-04-04T18:21:19.379Z,17.10
2019-04-04T18:24:23.195Z,17.00
2019-04-04T18:27:27.441Z,17.00
2019-04-04T18:30:33.193Z,17.00
2019-04-04T18:33:37.123Z,17.00
2019-04-04T18:36:40.830Z,17.00
2019-04-04T18:39:44.762Z,17.00
2019-04-04T18:42:53.627Z,17.00
2019-04-04T18:45:53.866Z,17.00
2019-04-04T18:48:57.789Z,17.00
2019-04-04T18:52:01.496Z,16.90
2019-04-04T18:55:05.622Z,16.90
2019-04-04T18:58:09.376Z,16.80
2019-04-04T19:01:13.559Z,16.80
2019-04-04T19:04:17.529Z,16.70
2019-04-04T19:07:21.395Z,16.60
2019-04-04T19:10:25.262Z,16.60
2019-04-04T19:13:29.208Z,16.60
2019-04-04T19:16:33.181Z,16.60
2019-04-04T19:19:37.085Z,16.50
2019-04-04T19:22:41.040Z,16.40
2019-04-04T19:25:44.828Z,16.40
2019-04-04T19:28:48.888Z,16.30
2019-04-04T19:31:52.713Z,16.30
2019-04-04T19:34:56.518Z,16.30
2019-04-04T19:38:00.693Z,16.20
2019-04-04T19:41:05.269Z,16.20
2019-04-04T19:44:10.593Z,16.10
2019-04-04T19:47:14.299Z,16.20
2019-04-04T19:50:18.220Z,16.10
2019-04-04T19:53:21.935Z,16.10
2019-04-04T19:56:25.666Z,16.10
2019-04-04T19:59:29.497Z,16.10
2019-04-04T20:02:33.370Z,16.10
2019-04-04T20:05:37.150Z,16.00
2019-04-04T20:08:41.433Z,16.00
2019-04-04T20:11:45.335Z,16.00
2019-04-04T20:14:49.011Z,16.00
2019-04-04T20:17:52.928Z,15.90
2019-04-04T20:20:56.798Z,15.90
2019-04-04T20:24:00.598Z,15.80
2019-04-04T20:27:04.519Z,15.80
2019-04-04T20:30:09.385Z,15.70
2019-04-04T20:33:14.027Z,15.60
2019-04-04T20:36:17.812Z,15.70
2019-04-04T20:39:21.516Z,15.70
2019-04-04T20:42:25.198Z,15.70
2019-04-04T20:45:29.350Z,15.60
2019-04-04T20:48:33.052Z,15.60
2019-04-04T20:51:36.771Z,15.60
2019-04-04T20:54:40.557Z,15.50
2019-04-04T20:57:44.289Z,15.50
2019-04-04T21:00:47.955Z,15.40
2019-04-04T21:03:51.653Z,15.30
2019-04-04T21:06:55.450Z,15.30
2019-04-04T21:09:59.147Z,15.20
2019-04-04T21:13:02.942Z,15.20
2019-04-04T21:16:06.617Z,15.20
2019-04-04T21:19:10.502Z,15.20
2019-04-04T21:22:26.527Z,15.10
2019-04-04T21:25:19.610Z,15.10
2019-04-04T21:28:23.297Z,15.10
2019-04-04T21:31:27.010Z,15.10
2019-04-04T21:34:30.926Z,15.00
2019-04-04T21:37:34.647Z,14.90
2019-04-04T21:40:38.535Z,14.90
2019-04-04T21:43:42.211Z,14.90
2019-04-04T21:46:46.165Z,14.90
2019-04-04T21:49:49.866Z,14.90
2019-04-04T21:52:53.594Z,14.90
2019-04-04T21:55:57.419Z,14.80
2019-04-04T21:59:01.139Z,14.80
2019-04-04T22:02:05.349Z,14.80
2019-04-04T22:05:09.771Z,14.70
2019-04-04T22:08:13.559Z,14.60
2019-04-04T22:11:17.251Z,14.60
2019-04-04T22:14:22.435Z,14.60
2019-04-04T22:17:26.272Z,14.50
2019-04-04T22:20:29.929Z,14.50
2019-04-04T22:23:33.669Z,14.40
2019-04-04T22:26:37.456Z,14.40
2019-04-04T22:29:41.135Z,14.40
2019-04-04T22:32:44.850Z,14.40
2019-04-04T22:35:48.499Z,14.40
2019-04-04T22:38:52.279Z,14.30
2019-04-04T22:41:55.941Z,14.20
2019-04-04T22:44:59.958Z,14.20
2019-04-04T22:48:04.014Z,14.10
2019-04-04T22:51:07.918Z,14.10
2019-04-04T22:54:11.833Z,14.10
2019-04-04T22:57:15.543Z,14.10
2019-04-04T23:00:20.222Z,14.00
2019-04-04T23:03:25.236Z,14.00
2019-04-04T23:06:28.995Z,13.90
2019-04-04T23:09:32.892Z,13.90
2019-04-04T23:12:36.961Z,13.90
2019-04-04T23:15:40.642Z,13.80
2019-04-04T23:18:44.386Z,13.90
2019-04-04T23:21:48.105Z,13.90
2019-04-04T23:24:51.810Z,13.90
2019-04-04T23:27:55.547Z,13.90
2019-04-04T23:30:59.961Z,13.90
2019-04-04T23:34:03.910Z,13.80
2019-04-04T23:37:07.588Z,13.70
2019-04-04T23:40:11.545Z,13.60
2019-04-04T23:43:15.274Z,13.60
2019-04-04T23:46:18.920Z,13.50
2019-04-04T23:49:23.375Z,13.50
2019-04-04T23:52:27.379Z,13.40
2019-04-04T23:55:31.240Z,13.40
2019-04-04T23:58:35.195Z,13.40
